Tofino, Canada
Current Conditions -  °F | °C
As of 6:00 PM on Thursday 20 Nov 2014 (Local Time) from CYQQ Reporting Station
Broken Clouds Broken Clouds  
Wind Chill: 42°   Ceiling: 8000
Heat Index: 48°   Visibility: 20mi
Dew Point: 46°   Wind: 18mph
Humidity: 93%   Direction: 150°SSE
Pressure: 29.84"   Gusts: NA
Location:  49.15°N, 125.9°W
Report Text: CYQQ 210200Z 15016KT 20SM FEW010 BKN080 BKN100 09/08 A2984 RMK SF1AC4AC2 SLP107
Loading
Personal Weather Stations






























Interactive Weather Map New forecast layout! Learn more

10-Day Weather Forecast

Advertisements
Track Severe Weather on mobile